Time;durP1;ratioP1;P1;durP2;ratioP2;P2;SDS_P1;SDS_P2;PMS_P1;PMS_P2;Temp;Humidity;BMP_temperature;BMP_pressure;BME280_temperature;BME280_humidity;BME280_pressure;Samples;Min_cycle;Max_cycle;Signal;HPM_P1;HPM_P2
2024/02/23 00:00:05;;;;;;;3.35;1.30;;;7.80;99.90;;;;;;5048809;28;20082;-78
2024/02/23 00:02:31;;;;;;;1.92;1.15;;;7.80;99.90;;;;;;5049746;28;20033;-78
2024/02/23 00:04:57;;;;;;;1.85;1.08;;;7.70;99.90;;;;;;5052586;28;20084;-76
2024/02/23 00:07:22;;;;;;;2.90;1.30;;;7.70;99.90;;;;;;5032366;28;20045;-79
2024/02/23 00:09:48;;;;;;;1.38;1.08;;;7.60;99.90;;;;;;5045763;28;20029;-78
2024/02/23 00:12:14;;;;;;;2.42;1.05;;;7.60;99.90;;;;;;5051806;28;20465;-81
2024/02/23 00:14:40;;;;;;;2.58;0.90;;;7.60;99.90;;;;;;5051882;28;20025;-77
2024/02/23 00:17:05;;;;;;;4.10;0.90;;;7.60;99.90;;;;;;5051108;28;20112;-78
2024/02/23 00:19:31;;;;;;;3.10;0.90;;;7.60;99.90;;;;;;5047395;28;20428;-78
2024/02/23 00:21:59;;;;;;;3.67;0.98;;;7.60;99.90;;;;;;5051079;28;20120;-79
2024/02/23 00:24:25;;;;;;;3.08;0.65;;;7.70;99.90;;;;;;5038261;28;20071;-79
2024/02/23 00:26:51;;;;;;;3.03;1.15;;;7.60;99.90;;;;;;5030781;28;20411;-78
2024/02/23 00:29:17;;;;;;;1.95;0.70;;;7.60;99.90;;;;;;5032054;28;20056;-77
2024/02/23 00:31:45;;;;;;;3.25;0.75;;;7.60;99.90;;;;;;5051840;28;20025;-77
2024/02/23 00:34:12;;;;;;;3.10;0.70;;;7.60;99.90;;;;;;5052154;28;20044;-74
2024/02/23 00:36:39;;;;;;;4.72;0.85;;;7.60;99.90;;;;;;5045608;28;20013;-75
2024/02/23 00:39:07;;;;;;;2.70;0.63;;;7.50;99.90;;;;;;5044871;28;20025;-77
2024/02/23 00:41:33;;;;;;;6.47;0.80;;;7.50;99.90;;;;;;5051683;28;20369;-79
2024/02/23 00:43:59;;;;;;;5.90;0.80;;;7.60;99.90;;;;;;5050423;28;20390;-79
2024/02/23 00:46:24;;;;;;;1.92;0.70;;;7.50;99.90;;;;;;5039861;28;20017;-78
2024/02/23 00:48:50;;;;;;;4.78;0.85;;;7.60;99.90;;;;;;5052080;28;20432;-76
2024/02/23 00:51:16;;;;;;;5.53;0.70;;;7.60;99.90;;;;;;5051640;28;20059;-77
2024/02/23 00:53:41;;;;;;;5.22;0.88;;;7.50;99.90;;;;;;5051946;28;20033;-78
2024/02/23 00:56:07;;;;;;;5.63;1.15;;;7.50;99.90;;;;;;5041598;28;20490;-75
2024/02/23 00:58:33;;;;;;;8.73;0.90;;;7.60;99.90;;;;;;5051392;28;20013;-77
2024/02/23 01:00:59;;;;;;;2.47;0.75;;;7.60;99.90;;;;;;5045189;28;20040;-78
2024/02/23 01:03:25;;;;;;;5.85;0.90;;;7.60;99.90;;;;;;5043753;28;20040;-78
2024/02/23 01:05:50;;;;;;;4.88;0.77;;;7.60;99.90;;;;;;5051564;28;20569;-79
2024/02/23 01:08:16;;;;;;;2.13;0.70;;;7.50;99.90;;;;;;5051448;28;20099;-78
2024/02/23 01:10:42;;;;;;;8.30;1.50;;;7.50;99.90;;;;;;5046505;28;20478;-78
2024/02/23 01:13:07;;;;;;;2.75;0.52;;;7.50;99.90;;;;;;5031591;28;20092;-78
2024/02/23 01:15:34;;;;;;;2.88;0.70;;;7.50;99.90;;;;;;5049065;28;20102;-77
2024/02/23 01:17:59;;;;;;;4.07;1.33;;;7.50;99.90;;;;;;5051085;28;20021;-77
2024/02/23 01:20:25;;;;;;;4.65;0.80;;;7.50;99.90;;;;;;5044992;28;20024;-77
2024/02/23 01:22:51;;;;;;;2.58;1.23;;;7.50;99.90;;;;;;5051714;28;20104;-76
2024/02/23 01:25:16;;;;;;;3.38;1.00;;;7.40;99.90;;;;;;5041751;28;20030;-78
2024/02/23 01:27:44;;;;;;;3.35;1.13;;;7.50;99.90;;;;;;5031433;28;20492;-78
2024/02/23 01:30:10;;;;;;;7.22;1.00;;;7.50;99.90;;;;;;5048518;28;20021;-78
2024/02/23 01:32:38;;;;;;;4.22;0.85;;;7.50;99.90;;;;;;5051598;28;20096;-78
2024/02/23 01:35:05;;;;;;;2.85;0.93;;;7.40;99.90;;;;;;5051696;28;20032;-76
2024/02/23 01:37:31;;;;;;;3.72;0.95;;;7.40;99.90;;;;;;5062826;28;20426;-77
2024/02/23 01:39:57;;;;;;;4.35;1.00;;;7.40;99.90;;;;;;5053088;28;20095;-78
2024/02/23 01:42:23;;;;;;;4.13;0.90;;;7.40;99.90;;;;;;5050688;28;20497;-79
2024/02/23 01:44:49;;;;;;;6.80;1.00;;;7.40;99.90;;;;;;5037798;28;20025;-78
2024/02/23 01:47:15;;;;;;;5.35;1.00;;;7.40;99.90;;;;;;5039317;28;20036;-78
2024/02/23 01:49:42;;;;;;;3.55;1.08;;;7.40;99.90;;;;;;5050286;28;20075;-78
2024/02/23 01:52:08;;;;;;;4.90;1.10;;;7.40;99.90;;;;;;5051099;28;20025;-78
2024/02/23 01:54:34;;;;;;;3.25;1.02;;;7.40;99.90;;;;;;5054656;28;20424;-78
2024/02/23 01:57:00;;;;;;;3.78;0.93;;;7.40;99.90;;;;;;5055612;28;20029;-77
2024/02/23 01:59:26;;;;;;;7.10;0.93;;;7.40;99.90;;;;;;5055267;28;20023;-78
2024/02/23 02:01:52;;;;;;;7.13;1.15;;;7.30;99.90;;;;;;5055151;28;20032;-78
2024/02/23 02:04:18;;;;;;;5.50;1.10;;;7.30;99.90;;;;;;5034360;28;20037;-76
2024/02/23 02:06:46;;;;;;;3.17;0.90;;;7.30;99.90;;;;;;5047969;28;20429;-77
2024/02/23 02:09:12;;;;;;;5.13;0.80;;;7.20;99.90;;;;;;5048696;28;20373;-77
2024/02/23 02:11:50;;;;;;;3.90;0.90;;;7.20;99.90;;;;;;5047411;28;20104;-77
2024/02/23 02:14:17;;;;;;;2.83;1.10;;;7.20;99.90;;;;;;5040788;28;20025;-78
2024/02/23 02:16:44;;;;;;;4.50;1.20;;;7.10;99.90;;;;;;5053702;28;20079;-77
2024/02/23 02:19:10;;;;;;;5.80;1.83;;;7.20;99.90;;;;;;5047881;28;20033;-78
2024/02/23 02:21:37;;;;;;;2.75;1.40;;;7.20;99.90;;;;;;5035310;28;20068;-77
2024/02/23 02:24:03;;;;;;;12.50;1.45;;;7.20;99.90;;;;;;5055041;28;20037;-77
2024/02/23 02:26:29;;;;;;;3.45;1.40;;;7.20;99.90;;;;;;5041305;28;20451;-78
2024/02/23 02:28:55;;;;;;;3.42;1.30;;;7.20;99.90;;;;;;5055191;28;20032;-77
2024/02/23 02:31:21;;;;;;;4.28;1.38;;;7.20;99.90;;;;;;5040583;28;20097;-78
2024/02/23 02:33:46;;;;;;;5.40;1.70;;;7.20;99.90;;;;;;5055175;28;20063;-78
2024/02/23 02:36:12;;;;;;;3.95;1.20;;;7.20;99.90;;;;;;5041206;28;20028;-77
2024/02/23 02:38:38;;;;;;;4.90;0.90;;;7.20;99.90;;;;;;5054154;28;20094;-78
2024/02/23 02:41:04;;;;;;;5.40;1.35;;;7.30;99.90;;;;;;5038468;28;20029;-76
2024/02/23 02:43:30;;;;;;;4.43;1.60;;;7.20;99.90;;;;;;5035076;28;20109;-78
2024/02/23 02:45:56;;;;;;;3.47;1.33;;;7.30;99.90;;;;;;5034776;28;20041;-77
2024/02/23 02:48:23;;;;;;;2.63;1.30;;;7.30;99.90;;;;;;5042697;28;20067;-77
2024/02/23 02:50:49;;;;;;;4.00;1.10;;;7.30;99.90;;;;;;5053589;28;20112;-77
2024/02/23 02:53:15;;;;;;;7.35;1.33;;;7.30;99.90;;;;;;5054660;28;20476;-76
2024/02/23 02:55:45;;;;;;;5.43;1.48;;;7.20;99.90;;;;;;5053970;28;20040;-76
2024/02/23 02:58:14;;;;;;;6.03;1.42;;;7.30;99.90;;;;;;5054512;28;20291;-77
2024/02/23 03:00:40;;;;;;;2.80;1.17;;;7.30;99.90;;;;;;5039887;28;20025;-77
2024/02/23 03:03:06;;;;;;;3.22;1.00;;;7.30;99.90;;;;;;5045162;28;20045;-77
2024/02/23 03:05:31;;;;;;;2.58;1.00;;;7.30;99.90;;;;;;5048903;28;20079;-77
2024/02/23 03:07:57;;;;;;;4.28;1.45;;;7.20;99.90;;;;;;5053796;28;20016;-78
2024/02/23 03:10:23;;;;;;;4.38;1.08;;;7.20;99.90;;;;;;5050339;28;20477;-77
2024/02/23 03:12:48;;;;;;;7.47;1.40;;;7.30;99.90;;;;;;5042939;28;20025;-77
2024/02/23 03:15:14;;;;;;;3.55;1.48;;;7.30;99.90;;;;;;5054137;28;20493;-77
2024/02/23 03:17:40;;;;;;;6.22;1.50;;;7.20;99.90;;;;;;5054212;28;20067;-78
2024/02/23 03:20:10;;;;;;;9.68;1.58;;;7.10;99.90;;;;;;5053234;28;20068;-77
2024/02/23 03:22:39;;;;;;;7.15;1.30;;;7.10;99.90;;;;;;5052859;28;20032;-77
2024/02/23 03:25:09;;;;;;;4.10;1.23;;;7.00;99.90;;;;;;5052386;28;20509;-77
2024/02/23 03:27:36;;;;;;;4.32;1.20;;;7.10;99.90;;;;;;5052759;28;20455;-77
2024/02/23 03:30:03;;;;;;;7.30;1.77;;;7.20;99.90;;;;;;5040779;28;20024;-76
2024/02/23 03:32:31;;;;;;;4.45;1.27;;;7.20;99.90;;;;;;5043447;28;20021;-78
2024/02/23 03:34:56;;;;;;;2.95;1.05;;;7.20;99.90;;;;;;5038171;28;20056;-78
2024/02/23 03:37:22;;;;;;;11.43;1.40;;;7.20;99.90;;;;;;5041898;28;20053;-77
2024/02/23 03:39:49;;;;;;;8.32;1.30;;;7.20;99.90;;;;;;5033549;28;20386;-78
2024/02/23 03:42:14;;;;;;;4.57;1.15;;;7.20;99.90;;;;;;5045293;28;20534;-77
2024/02/23 03:44:42;;;;;;;4.50;1.02;;;7.20;99.90;;;;;;5034067;28;20041;-77
2024/02/23 03:47:08;;;;;;;10.40;1.65;;;7.20;99.90;;;;;;5033430;28;20029;-76
2024/02/23 03:49:34;;;;;;;7.70;1.30;;;7.20;99.90;;;;;;5037972;28;20020;-77
2024/02/23 03:51:59;;;;;;;4.32;1.30;;;7.20;99.90;;;;;;5053504;28;20029;-77
2024/02/23 03:54:25;;;;;;;6.28;1.48;;;7.10;99.90;;;;;;5051184;28;20025;-77
2024/02/23 03:56:50;;;;;;;11.30;1.42;;;7.10;99.90;;;;;;5052845;28;20033;-77
2024/02/23 03:59:16;;;;;;;6.70;1.20;;;7.10;99.90;;;;;;5034557;28;20039;-77
2024/02/23 04:01:42;;;;;;;7.07;1.30;;;7.10;99.90;;;;;;5044141;28;20027;-77
2024/02/23 04:04:07;;;;;;;5.97;1.20;;;7.00;99.90;;;;;;5052349;28;20044;-77
2024/02/23 04:06:36;;;;;;;4.70;1.25;;;7.00;99.90;;;;;;5052800;28;20091;-77
2024/02/23 04:09:04;;;;;;;7.30;1.80;;;7.00;99.90;;;;;;5048038;28;20021;-77
2024/02/23 04:11:31;;;;;;;7.60;1.17;;;7.10;99.90;;;;;;5044771;28;20058;-77
2024/02/23 04:13:56;;;;;;;3.88;1.15;;;7.10;99.90;;;;;;5052392;28;20477;-79
2024/02/23 04:16:24;;;;;;;6.25;1.45;;;7.00;99.90;;;;;;5053199;28;20029;-78
2024/02/23 04:18:50;;;;;;;4.40;1.45;;;7.00;99.90;;;;;;5038143;28;20070;-77
2024/02/23 04:21:16;;;;;;;6.65;1.35;;;7.00;99.90;;;;;;5052316;28;20033;-78
2024/02/23 04:23:43;;;;;;;6.50;1.75;;;7.10;99.90;;;;;;5051955;28;20024;-79
2024/02/23 04:26:09;;;;;;;3.95;1.38;;;7.10;99.90;;;;;;5052789;28;20025;-78
2024/02/23 04:28:37;;;;;;;9.98;1.63;;;7.10;99.90;;;;;;5052316;28;20496;-77
2024/02/23 04:31:03;;;;;;;6.88;1.20;;;7.10;99.90;;;;;;5052356;28;20029;-77
2024/02/23 04:33:28;;;;;;;5.90;1.20;;;7.20;99.90;;;;;;5052514;28;20099;-78
2024/02/23 04:35:54;;;;;;;3.85;1.17;;;7.20;99.90;;;;;;5050356;28;20041;-78
2024/02/23 04:38:20;;;;;;;9.55;1.95;;;7.20;99.90;;;;;;5046625;28;20021;-79
2024/02/23 04:40:45;;;;;;;7.03;1.50;;;7.20;99.90;;;;;;5044580;28;20029;-78
2024/02/23 04:43:11;;;;;;;4.85;1.25;;;7.30;99.90;;;;;;5052290;28;20064;-78
2024/02/23 04:45:37;;;;;;;9.25;1.73;;;7.20;99.90;;;;;;5052370;28;20436;-78
2024/02/23 04:48:03;;;;;;;8.57;1.30;;;7.20;99.90;;;;;;5050185;28;20374;-77
2024/02/23 04:50:29;;;;;;;9.18;1.45;;;7.10;99.90;;;;;;5052859;28;20087;-77
2024/02/23 04:52:55;;;;;;;7.57;1.20;;;7.20;99.90;;;;;;5051453;28;20044;-77
2024/02/23 04:55:20;;;;;;;8.00;1.10;;;7.20;99.90;;;;;;5052626;28;20028;-77
2024/02/23 04:57:46;;;;;;;5.47;1.42;;;7.20;99.90;;;;;;5051010;28;20029;-78
2024/02/23 05:00:12;;;;;;;8.57;1.40;;;7.40;99.90;;;;;;5040696;28;20546;-77
2024/02/23 05:02:38;;;;;;;8.48;1.23;;;7.40;99.90;;;;;;5044678;28;20417;-76
2024/02/23 05:05:04;;;;;;;6.07;1.20;;;7.50;99.90;;;;;;5032009;28;20053;-76
2024/02/23 05:07:32;;;;;;;9.05;1.48;;;7.30;99.90;;;;;;5036472;28;20023;-77
2024/02/23 05:09:57;;;;;;;12.23;1.80;;;7.40;99.90;;;;;;5050121;28;20425;-77
2024/02/23 05:12:23;;;;;;;9.00;1.50;;;7.50;99.90;;;;;;5051962;28;20013;-78
2024/02/23 05:14:49;;;;;;;7.72;1.15;;;7.50;99.90;;;;;;5039915;28;20075;-77
2024/02/23 05:17:14;;;;;;;8.52;1.50;;;7.40;99.90;;;;;;5036594;28;20028;-76
2024/02/23 05:19:40;;;;;;;4.95;1.20;;;7.60;99.90;;;;;;5039250;28;20036;-75
2024/02/23 05:22:06;;;;;;;11.30;1.80;;;7.50;99.90;;;;;;5049304;28;20509;-77
2024/02/23 05:24:32;;;;;;;9.00;1.92;;;7.50;99.90;;;;;;5049021;28;20021;-77
2024/02/23 05:26:58;;;;;;;6.10;1.23;;;7.50;99.90;;;;;;5050913;28;20493;-76
2024/02/23 05:29:24;;;;;;;8.15;1.15;;;7.50;99.90;;;;;;5052116;28;20035;-76
2024/02/23 05:31:52;;;;;;;5.90;1.92;;;7.50;99.90;;;;;;5051538;28;20049;-76
2024/02/23 05:34:21;;;;;;;8.88;1.55;;;7.40;99.90;;;;;;5051866;28;20104;-75
2024/02/23 05:36:47;;;;;;;11.88;2.22;;;7.40;99.90;;;;;;5051309;28;20025;-77
2024/02/23 05:39:15;;;;;;;5.47;1.15;;;7.50;99.90;;;;;;5038142;28;20489;-76
2024/02/23 05:41:43;;;;;;;5.10;1.30;;;7.50;99.90;;;;;;5045415;28;20077;-76
2024/02/23 05:44:10;;;;;;;8.77;1.70;;;7.50;99.90;;;;;;5045056;28;20039;-76
2024/02/23 05:46:36;;;;;;;5.40;1.38;;;7.60;99.90;;;;;;5051225;28;20020;-77
2024/02/23 05:49:06;;;;;;;8.68;1.70;;;7.50;99.90;;;;;;5051646;28;20039;-76
2024/02/23 05:51:32;;;;;;;10.10;1.63;;;7.50;99.90;;;;;;5043422;28;20060;-76
2024/02/23 05:54:01;;;;;;;7.38;1.58;;;7.50;99.90;;;;;;5045041;28;20021;-75
2024/02/23 05:56:26;;;;;;;6.85;1.42;;;7.60;99.90;;;;;;5051091;28;20025;-77
2024/02/23 05:58:52;;;;;;;6.68;1.08;;;7.60;99.90;;;;;;5050584;28;20028;-76
2024/02/23 06:01:18;;;;;;;6.90;1.55;;;7.60;99.90;;;;;;5039462;28;20056;-77
2024/02/23 06:03:44;;;;;;;7.38;1.35;;;7.70;99.90;;;;;;5050927;28;20035;-75
2024/02/23 06:06:10;;;;;;;7.40;1.35;;;7.60;99.90;;;;;;5051893;28;20029;-77
2024/02/23 06:08:37;;;;;;;5.47;1.38;;;7.60;99.90;;;;;;5051026;28;20428;-76
2024/02/23 06:11:03;;;;;;;6.43;1.30;;;7.60;99.90;;;;;;5051496;28;20028;-76
2024/02/23 06:13:32;;;;;;;9.23;1.38;;;7.60;99.90;;;;;;5050329;28;20017;-76
2024/02/23 06:15:59;;;;;;;9.30;1.98;;;7.70;99.90;;;;;;5051540;28;20355;-76
2024/02/23 06:18:24;;;;;;;7.47;2.50;;;7.60;99.90;;;;;;5051522;28;20543;-73
2024/02/23 06:20:50;;;;;;;8.82;1.92;;;7.60;99.90;;;;;;5051544;28;20029;-76
2024/02/23 06:23:17;;;;;;;6.78;1.70;;;7.60;99.90;;;;;;5049654;28;20036;-75
2024/02/23 06:25:43;;;;;;;6.65;1.67;;;7.60;99.90;;;;;;5031229;28;20094;-76
2024/02/23 06:28:09;;;;;;;6.93;1.52;;;7.70;99.90;;;;;;5032600;28;20017;-72
2024/02/23 06:30:35;;;;;;;6.70;1.77;;;7.70;99.90;;;;;;5051311;28;20493;-75
2024/02/23 06:33:00;;;;;;;9.63;1.65;;;7.70;99.90;;;;;;5050352;28;20025;-76
2024/02/23 06:35:26;;;;;;;7.20;1.50;;;7.70;99.90;;;;;;5050252;28;20057;-77
2024/02/23 06:37:52;;;;;;;11.82;1.60;;;7.60;99.90;;;;;;5036022;28;20485;-75
2024/02/23 06:40:18;;;;;;;6.70;1.30;;;7.60;99.90;;;;;;5034247;28;20067;-79
2024/02/23 06:42:43;;;;;;;9.00;1.48;;;7.50;99.90;;;;;;5041239;28;20104;-77
2024/02/23 06:45:09;;;;;;;11.90;1.60;;;7.60;99.90;;;;;;5052110;28;20559;-75
2024/02/23 06:47:35;;;;;;;14.60;2.65;;;7.60;99.90;;;;;;5034498;28;20025;-76
2024/02/23 06:50:01;;;;;;;10.52;1.85;;;7.60;99.90;;;;;;5048276;28;20033;-77
2024/02/23 06:52:26;;;;;;;9.40;1.90;;;7.70;99.90;;;;;;5052541;28;20017;-76
2024/02/23 06:54:52;;;;;;;4.50;1.48;;;7.70;99.90;;;;;;5034712;28;20409;-77
2024/02/23 06:57:18;;;;;;;13.88;2.20;;;7.70;99.90;;;;;;5035870;28;20024;-76
2024/02/23 06:59:44;;;;;;;12.25;1.90;;;7.70;99.90;;;;;;5054613;28;20025;-77
2024/02/23 07:02:09;;;;;;;7.45;1.27;;;7.60;99.90;;;;;;5040916;28;20068;-77
2024/02/23 07:04:35;;;;;;;7.35;1.55;;;7.60;99.90;;;;;;5053663;28;20478;-74
2024/02/23 07:07:07;;;;;;;7.35;1.40;;;7.60;99.90;;;;;;5054287;28;20075;-73
2024/02/23 07:09:33;;;;;;;9.67;1.60;;;7.70;99.90;;;;;;5054664;28;20024;-73
2024/02/23 07:11:59;;;;;;;8.98;1.40;;;7.70;99.90;;;;;;5046943;28;20108;-76
2024/02/23 07:14:24;;;;;;;9.98;1.77;;;7.70;99.90;;;;;;5044594;28;20168;-75
2024/02/23 07:16:52;;;;;;;5.72;1.23;;;7.60;99.90;;;;;;5032410;28;20037;-74
2024/02/23 07:19:17;;;;;;;7.75;1.40;;;7.60;99.90;;;;;;5039743;28;20356;-76
2024/02/23 07:21:43;;;;;;;6.53;1.67;;;7.70;99.90;;;;;;5047126;28;20040;-75
2024/02/23 07:24:09;;;;;;;8.43;1.40;;;7.70;99.90;;;;;;5053481;28;20033;-74
2024/02/23 07:26:35;;;;;;;11.30;1.70;;;7.80;99.90;;;;;;5039403;28;20025;-73
2024/02/23 07:29:30;;;;;;;5.65;1.35;;;7.70;99.90;;;;;;5046590;28;20088;-74
2024/02/23 07:31:55;;;;;;;13.30;1.40;;;7.70;99.90;;;;;;5051193;28;20062;-75
2024/02/23 07:34:21;;;;;;;5.35;1.92;;;7.70;99.90;;;;;;5053853;28;20111;-75
2024/02/23 07:36:47;;;;;;;5.28;1.27;;;7.70;99.90;;;;;;5053313;28;20028;-75
2024/02/23 07:39:12;;;;;;;11.43;2.20;;;7.60;99.90;;;;;;5053141;28;20083;-80
2024/02/23 07:41:38;;;;;;;8.27;1.33;;;7.70;99.90;;;;;;5013799;28;20114;-80
2024/02/23 07:44:04;;;;;;;6.30;1.27;;;7.70;99.90;;;;;;5041628;28;20538;-75
2024/02/23 07:46:30;;;;;;;5.32;1.40;;;7.70;99.90;;;;;;5055164;28;20029;-81
2024/02/23 07:48:55;;;;;;;8.57;1.40;;;7.70;99.90;;;;;;5056811;28;20029;-79
2024/02/23 07:51:21;;;;;;;9.80;1.73;;;7.80;99.90;;;;;;5056547;28;20017;-78
2024/02/23 07:53:46;;;;;;;4.15;1.27;;;7.80;99.90;;;;;;5060069;28;20028;-77
2024/02/23 07:56:12;;;;;;;5.93;1.55;;;7.90;99.90;;;;;;5057712;28;20100;-77
2024/02/23 07:58:38;;;;;;;7.15;1.58;;;7.90;99.90;;;;;;5056544;28;20086;-78
2024/02/23 08:01:04;;;;;;;4.15;1.40;;;7.90;99.90;;;;;;5056649;28;20028;-78
2024/02/23 08:03:29;;;;;;;10.45;1.70;;;8.00;99.90;;;;;;5056500;28;20035;-80
2024/02/23 08:05:55;;;;;;;7.88;1.35;;;8.00;99.90;;;;;;5057079;28;20405;-80
2024/02/23 08:08:23;;;;;;;10.48;1.85;;;8.00;99.90;;;;;;5058469;28;20025;-78
2024/02/23 08:10:49;;;;;;;8.93;1.90;;;8.00;99.90;;;;;;5057563;28;20024;-73
2024/02/23 08:13:15;;;;;;;5.38;1.23;;;8.00;99.90;;;;;;5056564;28;20021;-77
2024/02/23 08:15:41;;;;;;;9.80;1.70;;;8.00;99.90;;;;;;5060970;28;20029;-79
2024/02/23 08:18:06;;;;;;;7.53;1.27;;;8.10;99.90;;;;;;5059306;28;20044;-78
2024/02/23 08:20:32;;;;;;;8.90;1.75;;;8.10;99.90;;;;;;5056616;28;20028;-79
2024/02/23 08:22:58;;;;;;;7.07;1.63;;;8.00;99.90;;;;;;5059750;28;20028;-79
2024/02/23 08:25:23;;;;;;;9.23;1.60;;;8.20;99.90;;;;;;5058896;28;20485;-78
2024/02/23 08:27:49;;;;;;;8.00;1.42;;;8.20;99.90;;;;;;5056841;28;20031;-79
2024/02/23 08:30:15;;;;;;;10.70;1.75;;;8.30;99.90;;;;;;5057918;28;20033;-79
2024/02/23 08:32:41;;;;;;;7.32;1.48;;;8.30;99.90;;;;;;5056387;28;20478;-78
2024/02/23 08:35:07;;;;;;;6.95;1.67;;;8.40;99.90;;;;;;5054072;28;20421;-79
2024/02/23 08:37:33;;;;;;;15.43;1.95;;;8.50;99.90;;;;;;5055396;28;20432;-79
2024/02/23 08:39:59;;;;;;;6.13;1.63;;;8.50;99.90;;;;;;5059227;28;20032;-79
2024/02/23 08:42:25;;;;;;;12.30;1.73;;;8.50;99.90;;;;;;5058625;28;20887;-79
2024/02/23 08:44:51;;;;;;;9.13;3.22;;;8.50;99.90;;;;;;5057980;28;20029;-78
2024/02/23 08:47:17;;;;;;;9.77;1.70;;;8.60;99.90;;;;;;5054356;28;20017;-77
2024/02/23 08:49:42;;;;;;;5.10;1.60;;;8.60;99.90;;;;;;5057054;28;20465;-79
2024/02/23 08:52:08;;;;;;;8.88;1.88;;;8.70;99.90;;;;;;5055215;28;20112;-79
2024/02/23 08:54:34;;;;;;;10.40;2.00;;;8.80;99.90;;;;;;5055378;28;20017;-80
2024/02/23 08:56:59;;;;;;;7.78;2.10;;;8.90;99.90;;;;;;5060376;28;20079;-80
2024/02/23 08:59:25;;;;;;;8.18;1.88;;;9.10;99.90;;;;;;5058701;28;20032;-81
2024/02/23 09:01:51;;;;;;;4.03;0.90;;;8.90;99.90;;;;;;5058321;28;20042;-80
2024/02/23 09:04:16;;;;;;;8.55;1.52;;;8.90;99.90;;;;;;5054275;28;20037;-80
2024/02/23 09:06:42;;;;;;;9.95;1.38;;;8.80;99.90;;;;;;5052836;28;20401;-80
2024/02/23 09:09:08;;;;;;;9.43;1.60;;;8.80;99.90;;;;;;5059555;28;20432;-77
2024/02/23 09:11:34;;;;;;;6.00;1.45;;;8.80;99.90;;;;;;5054830;28;20021;-79
2024/02/23 09:13:59;;;;;;;9.35;1.77;;;8.90;99.90;;;;;;5058048;28;20033;-79
2024/02/23 09:16:25;;;;;;;4.15;1.13;;;8.90;99.90;;;;;;5059691;28;20583;-77
2024/02/23 09:18:51;;;;;;;11.55;1.92;;;8.90;99.90;;;;;;5056910;28;20533;-81
2024/02/23 09:21:16;;;;;;;7.50;1.58;;;8.90;99.90;;;;;;5057652;28;20024;-79
2024/02/23 09:23:42;;;;;;;12.95;1.83;;;8.90;99.90;;;;;;5059020;28;20025;-73
2024/02/23 09:26:11;;;;;;;5.20;1.58;;;9.00;99.90;;;;;;5051959;28;20044;-77
2024/02/23 09:28:37;;;;;;;9.10;1.55;;;9.00;99.90;;;;;;5054053;28;20475;-78
2024/02/23 09:31:04;;;;;;;7.22;0.98;;;9.00;99.90;;;;;;5056252;28;20028;-71
2024/02/23 09:33:30;;;;;;;4.80;0.90;;;9.00;99.90;;;;;;5059313;28;20782;-79
2024/02/23 09:35:57;;;;;;;5.43;1.70;;;9.10;99.90;;;;;;5058351;28;20437;-82
2024/02/23 09:38:24;;;;;;;4.75;1.05;;;9.20;99.90;;;;;;5057308;28;20158;-80
2024/02/23 09:40:51;;;;;;;6.30;1.40;;;9.10;99.90;;;;;;5057101;28;20012;-77
2024/02/23 09:43:17;;;;;;;6.70;1.20;;;9.10;99.90;;;;;;5053392;28;20033;-79
2024/02/23 09:45:43;;;;;;;8.88;2.08;;;9.10;99.90;;;;;;5059490;28;20028;-80
2024/02/23 09:48:10;;;;;;;10.43;1.10;;;9.20;99.90;;;;;;5054493;28;20040;-77
2024/02/23 09:50:38;;;;;;;7.35;1.20;;;9.10;99.90;;;;;;5057108;28;20037;-80
2024/02/23 09:53:08;;;;;;;6.70;1.02;;;9.20;99.90;;;;;;5056989;28;20025;-81
2024/02/23 09:55:34;;;;;;;11.48;1.98;;;9.20;99.90;;;;;;5056052;28;20595;-79
2024/02/23 09:58:01;;;;;;;5.72;1.40;;;9.30;99.90;;;;;;5059925;28;20031;-81
2024/02/23 10:00:27;;;;;;;5.85;1.38;;;9.30;99.90;;;;;;5055005;28;20025;-79
2024/02/23 10:02:55;;;;;;;3.25;0.90;;;9.40;99.90;;;;;;5053644;28;20033;-79
2024/02/23 10:05:23;;;;;;;5.75;1.30;;;9.60;99.90;;;;;;5054575;28;20033;-74
2024/02/23 10:07:48;;;;;;;4.93;1.17;;;9.80;99.90;;;;;;5053854;28;20021;-81
2024/02/23 10:10:14;;;;;;;9.90;1.88;;;9.90;99.90;;;;;;5056839;28;20050;-80
2024/02/23 10:12:40;;;;;;;4.90;1.38;;;10.00;99.90;;;;;;5053689;28;20501;-80
2024/02/23 10:15:06;;;;;;;8.70;1.75;;;10.10;99.90;;;;;;5060434;28;20013;-73
2024/02/23 10:17:32;;;;;;;4.35;0.80;;;10.30;99.90;;;;;;5059858;28;20075;-83
2024/02/23 10:19:59;;;;;;;4.80;1.30;;;10.20;99.90;;;;;;5060750;28;20036;-80
2024/02/23 10:22:25;;;;;;;4.72;1.50;;;10.00;99.90;;;;;;5057116;28;20080;-77
2024/02/23 10:24:51;;;;;;;4.78;1.17;;;10.00;99.90;;;;;;5056936;28;20468;-82
2024/02/23 10:27:17;;;;;;;3.80;0.88;;;10.00;99.90;;;;;;5058741;28;20021;-78
2024/02/23 10:29:43;;;;;;;4.95;1.27;;;9.80;99.90;;;;;;5062402;28;20032;-79
2024/02/23 10:32:14;;;;;;;3.35;0.85;;;9.90;99.90;;;;;;5052650;28;20017;-72
2024/02/23 10:34:43;;;;;;;3.67;1.10;;;9.80;99.90;;;;;;5053305;28;20036;-82
2024/02/23 10:37:09;;;;;;;7.78;0.75;;;9.70;99.90;;;;;;5055471;28;20020;-85
2024/02/23 10:39:39;;;;;;;4.30;0.90;;;9.70;99.90;;;;;;5054976;28;20037;-82
2024/02/23 10:42:09;;;;;;;4.97;1.30;;;9.80;99.90;;;;;;5049354;28;20394;-83
2024/02/23 10:44:35;;;;;;;4.78;1.42;;;9.80;99.90;;;;;;5055810;28;20481;-78
2024/02/23 10:47:02;;;;;;;6.93;1.48;;;9.80;99.90;;;;;;5056116;28;20017;-80
2024/02/23 10:49:29;;;;;;;6.55;1.70;;;9.80;99.90;;;;;;5056348;28;20111;-84
2024/02/23 10:51:56;;;;;;;4.78;1.33;;;10.00;99.90;;;;;;5052735;28;20536;-82
2024/02/23 10:54:22;;;;;;;7.80;1.73;;;10.00;99.90;;;;;;5054868;28;20025;-78
2024/02/23 10:56:49;;;;;;;6.55;1.23;;;10.00;99.90;;;;;;5060231;28;20188;-81
2024/02/23 10:59:18;;;;;;;6.88;1.38;;;9.90;99.90;;;;;;5054031;28;20074;-81
2024/02/23 11:01:47;;;;;;;4.72;1.20;;;9.80;99.90;;;;;;5057098;28;20060;-82
2024/02/23 11:04:14;;;;;;;6.38;1.73;;;9.70;99.90;;;;;;5056829;28;20106;-80
2024/02/23 11:06:41;;;;;;;5.75;1.20;;;9.80;99.90;;;;;;5054108;28;20086;-81
2024/02/23 11:09:08;;;;;;;3.53;1.10;;;9.70;99.90;;;;;;5055921;28;20041;-82
2024/02/23 11:11:34;;;;;;;4.43;1.05;;;9.80;99.90;;;;;;5053254;28;20024;-82
2024/02/23 11:14:03;;;;;;;3.53;1.20;;;9.90;99.90;;;;;;5056297;28;20416;-79
2024/02/23 11:16:32;;;;;;;8.52;1.50;;;9.80;99.90;;;;;;5054712;28;20023;-79
2024/02/23 11:19:04;;;;;;;8.32;1.98;;;9.80;99.90;;;;;;5053312;28;20009;-80
2024/02/23 11:21:37;;;;;;;6.35;1.17;;;9.80;99.90;;;;;;5049175;28;20045;-80
2024/02/23 11:24:06;;;;;;;2.80;1.20;;;9.80;99.90;;;;;;5059102;28;20036;-80
2024/02/23 11:26:35;;;;;;;7.45;1.38;;;9.80;99.90;;;;;;5052060;28;20053;-80
2024/02/23 11:29:10;;;;;;;2.97;0.88;;;9.90;99.90;;;;;;5055280;28;20021;-80
2024/02/23 11:31:36;;;;;;;3.92;1.10;;;10.10;99.90;;;;;;5050995;28;20027;-80
2024/02/23 11:34:01;;;;;;;2.30;0.68;;;10.00;99.90;;;;;;5058820;28;20029;-81
2024/02/23 11:36:36;;;;;;;5.13;1.02;;;10.20;99.90;;;;;;5057966;28;20028;-79
2024/02/23 11:39:02;;;;;;;4.18;0.93;;;10.30;99.90;;;;;;5051470;28;20031;-79
2024/02/23 11:41:29;;;;;;;4.20;0.95;;;10.40;99.90;;;;;;5052149;28;20032;-82
2024/02/23 11:43:56;;;;;;;3.72;1.00;;;10.40;99.90;;;;;;5054268;28;20059;-82
2024/02/23 11:46:22;;;;;;;4.60;1.25;;;10.30;99.90;;;;;;5055859;28;20028;-82
2024/02/23 11:48:55;;;;;;;3.67;0.85;;;10.30;99.90;;;;;;5053648;28;20095;-80
2024/02/23 11:51:26;;;;;;;3.13;0.80;;;10.30;99.90;;;;;;5050298;28;20035;-75
2024/02/23 11:53:52;;;;;;;2.70;0.85;;;10.40;99.90;;;;;;5049955;28;20071;-81
2024/02/23 11:56:19;;;;;;;5.95;1.38;;;10.30;99.90;;;;;;5053182;28;20051;-82
2024/02/23 11:58:47;;;;;;;2.72;0.80;;;10.30;99.90;;;;;;5051469;28;20021;-80
2024/02/23 12:01:12;;;;;;;7.40;1.05;;;10.20;99.90;;;;;;5048314;28;20040;-79
2024/02/23 12:03:39;;;;;;;7.18;1.25;;;10.20;99.90;;;;;;5049796;28;20029;-81
2024/02/23 12:06:06;;;;;;;5.93;0.93;;;10.20;99.90;;;;;;5049076;28;20423;-81
2024/02/23 12:08:37;;;;;;;4.47;0.75;;;10.20;99.90;;;;;;5046993;28;20021;-80
2024/02/23 12:11:05;;;;;;;3.55;0.70;;;10.20;99.90;;;;;;5047155;28;20044;-78
2024/02/23 12:13:32;;;;;;;5.30;1.25;;;10.20;99.90;;;;;;5048078;28;20371;-81
2024/02/23 12:15:57;;;;;;;8.98;1.25;;;10.20;99.90;;;;;;5047918;28;20013;-82
2024/02/23 12:18:26;;;;;;;4.40;0.70;;;10.20;99.90;;;;;;5046104;28;20021;-80
2024/02/23 12:20:52;;;;;;;2.90;0.90;;;10.20;99.90;;;;;;5049623;28;20394;-81
2024/02/23 12:23:18;;;;;;;7.30;1.65;;;10.20;99.90;;;;;;5051515;28;20025;-80
2024/02/23 12:26:00;;;;;;;3.88;0.90;;;10.10;99.90;;;;;;5052667;28;20033;-82
2024/02/23 12:28:26;;;;;;;2.95;1.02;;;10.10;99.90;;;;;;5055174;28;20088;-82
2024/02/23 12:31:02;;;;;;;5.57;1.10;;;10.20;99.90;;;;;;5055843;28;20590;-79
2024/02/23 12:33:29;;;;;;;5.05;1.02;;;10.10;99.90;;;;;;5053973;28;20070;-82
2024/02/23 12:35:56;;;;;;;4.97;1.45;;;10.20;99.90;;;;;;5055658;28;20047;-82
2024/02/23 12:38:22;;;;;;;5.72;1.00;;;10.20;99.90;;;;;;5054010;28;20052;-83
2024/02/23 12:40:48;;;;;;;6.10;0.98;;;10.10;99.90;;;;;;5054585;28;20040;-75
2024/02/23 12:43:14;;;;;;;4.18;0.90;;;10.20;99.90;;;;;;5051594;28;20072;-83
2024/02/23 12:45:40;;;;;;;7.40;1.17;;;10.20;99.90;;;;;;5054379;28;20047;-84
2024/02/23 12:48:06;;;;;;;7.43;1.20;;;10.30;99.90;;;;;;5059969;28;20667;-84
2024/02/23 12:50:31;;;;;;;4.15;1.10;;;10.30;99.90;;;;;;5046635;28;20029;-72